createdAt,value
2017-08-22T00:00:14.538Z,100773.59
2017-08-22T00:07:13.581Z,100790.33
2017-08-22T00:10:15.025Z,100780.70
2017-08-22T00:13:16.482Z,100775.58
2017-08-22T00:16:17.953Z,100777.19
2017-08-22T00:19:19.385Z,100779.45
2017-08-22T00:22:20.841Z,100780.23
2017-08-22T00:25:22.365Z,100776.23
2017-08-22T00:28:23.742Z,100769.27
2017-08-22T00:31:25.202Z,100769.80
2017-08-22T00:34:26.649Z,100774.08
2017-08-22T00:37:28.165Z,100762.51
2017-08-22T00:40:29.706Z,100765.48
2017-08-22T00:43:31.216Z,100765.92
2017-08-22T00:46:32.799Z,100759.09
2017-08-22T00:49:34.271Z,100767.61
2017-08-22T00:52:35.902Z,100772.51
2017-08-22T00:55:37.485Z,100764.09
2017-08-22T00:58:39.005Z,100774.94
2017-08-22T01:01:47.437Z,100778.75
2017-08-22T01:04:48.958Z,100775.72
2017-08-22T01:07:50.424Z,100764.59
2017-08-22T01:10:51.939Z,100766.00
2017-08-22T01:13:53.392Z,100763.11
2017-08-22T01:16:54.842Z,100767.30
2017-08-22T01:19:56.328Z,100772.30
2017-08-22T01:22:57.794Z,100775.48
2017-08-22T01:25:59.296Z,100784.57
2017-08-22T01:29:00.786Z,100794.34
2017-08-22T01:32:02.336Z,100784.42
2017-08-22T01:35:04.017Z,100786.22
2017-08-22T01:38:05.536Z,100787.16
2017-08-22T01:41:07.073Z,100784.28
2017-08-22T01:44:08.576Z,100779.03
2017-08-22T01:47:10.085Z,100776.73
2017-08-22T01:50:11.592Z,100771.25
2017-08-22T01:53:13.154Z,100772.08
2017-08-22T01:56:14.645Z,100759.92
2017-08-22T01:59:23.146Z,100757.37
2017-08-22T02:02:24.604Z,100759.61
2017-08-22T02:05:26.094Z,100757.33
2017-08-22T02:08:27.571Z,100761.27
2017-08-22T02:11:29.177Z,100759.06
2017-08-22T02:14:30.648Z,100760.56
2017-08-22T02:17:32.144Z,100751.56
2017-08-22T02:20:34.054Z,100764.75
2017-08-22T02:23:35.549Z,100770.93
2017-08-22T02:26:36.998Z,100771.30
2017-08-22T02:29:38.448Z,100766.53
2017-08-22T02:32:40.132Z,100779.48
2017-08-22T02:35:41.607Z,100766.85
2017-08-22T02:38:43.056Z,100765.13
2017-08-22T02:41:44.493Z,100760.31
2017-08-22T02:44:46.004Z,100757.99
2017-08-22T02:47:47.492Z,100752.14
2017-08-22T02:50:48.968Z,100754.11
2017-08-22T02:53:50.697Z,100757.45
2017-08-22T02:56:52.081Z,100756.50
2017-08-22T02:59:53.587Z,100754.97
2017-08-22T03:02:54.993Z,100755.63
2017-08-22T03:05:56.567Z,100759.04
2017-08-22T03:08:58.021Z,100753.25
2017-08-22T03:11:59.498Z,100753.42
2017-08-22T03:15:01.257Z,100752.12
2017-08-22T03:18:02.651Z,100749.00
2017-08-22T03:21:04.110Z,100753.91
2017-08-22T03:24:05.574Z,100750.33
2017-08-22T03:27:07.049Z,100741.70
2017-08-22T03:30:08.493Z,100757.91
2017-08-22T03:33:09.966Z,100747.93
2017-08-22T03:36:11.397Z,100758.28
2017-08-22T03:39:12.837Z,100757.38
2017-08-22T03:42:14.278Z,100764.51
2017-08-22T03:45:15.774Z,100755.37
2017-08-22T03:48:17.289Z,100768.65
2017-08-22T03:51:18.758Z,100767.25
2017-08-22T03:54:20.208Z,100760.38
2017-08-22T03:57:21.704Z,100761.14
2017-08-22T04:00:23.102Z,100757.11
2017-08-22T04:03:24.584Z,100753.56
2017-08-22T04:06:26.096Z,100744.64
2017-08-22T04:09:27.572Z,100759.96
2017-08-22T04:12:29.034Z,100755.52
2017-08-22T04:15:30.494Z,100757.53
2017-08-22T04:18:31.890Z,100757.64
2017-08-22T04:21:33.393Z,100748.19
2017-08-22T04:24:34.823Z,100744.37
2017-08-22T04:27:36.277Z,100740.54
2017-08-22T04:30:37.697Z,100751.30
2017-08-22T04:33:39.153Z,100747.38
2017-08-22T04:36:40.796Z,100741.39
2017-08-22T04:39:42.389Z,100748.19
2017-08-22T04:42:43.882Z,100737.53
2017-08-22T04:45:45.285Z,100747.43
2017-08-22T04:48:46.713Z,100742.27
2017-08-22T04:51:48.173Z,100740.69
2017-08-22T04:54:49.576Z,100742.50
2017-08-22T04:57:51.029Z,100738.16
2017-08-22T05:00:52.489Z,100738.68
2017-08-22T05:03:53.921Z,100748.72
2017-08-22T05:06:55.437Z,100743.78
2017-08-22T05:09:56.901Z,100736.41
2017-08-22T05:12:58.483Z,100736.92
2017-08-22T05:15:59.834Z,100731.19
2017-08-22T05:19:01.213Z,100743.48
2017-08-22T05:22:02.670Z,100734.88
2017-08-22T05:25:04.085Z,100740.42
2017-08-22T05:28:05.532Z,100740.91
2017-08-22T05:31:06.883Z,100748.87
2017-08-22T05:34:08.345Z,100750.00
2017-08-22T05:37:09.688Z,100749.98
2017-08-22T05:40:11.058Z,100751.29
2017-08-22T05:43:12.407Z,100750.45
2017-08-22T05:46:13.790Z,100750.65
2017-08-22T05:49:15.121Z,100751.99
2017-08-22T05:52:16.503Z,100745.19
2017-08-22T05:55:18.626Z,100749.40
2017-08-22T05:58:20.010Z,100752.91
2017-08-22T06:01:21.368Z,100755.15
2017-08-22T06:04:22.784Z,100758.81
2017-08-22T06:07:24.159Z,100752.57
2017-08-22T06:10:25.524Z,100748.38
2017-08-22T06:13:26.933Z,100742.70
2017-08-22T06:16:28.294Z,100753.42
2017-08-22T06:19:29.720Z,100751.07
2017-08-22T06:22:31.118Z,100742.41
2017-08-22T06:25:32.504Z,100757.99
2017-08-22T06:28:33.895Z,100750.28
2017-08-22T06:31:35.243Z,100746.77
2017-08-22T06:34:36.619Z,100746.01
2017-08-22T06:37:38.005Z,100743.50
2017-08-22T06:40:39.412Z,100743.58
2017-08-22T06:43:41.025Z,100742.51
2017-08-22T06:46:42.459Z,100732.07
2017-08-22T06:49:44.028Z,100735.13
2017-08-22T06:52:45.412Z,100742.55
2017-08-22T06:55:46.784Z,100748.05
2017-08-22T06:58:48.171Z,100740.55
2017-08-22T07:01:49.551Z,100733.52
2017-08-22T07:04:50.918Z,100737.49
2017-08-22T07:07:52.313Z,100736.81
2017-08-22T07:10:53.600Z,100738.75
2017-08-22T07:13:54.940Z,100749.81
2017-08-22T07:16:56.332Z,100749.95
2017-08-22T07:19:57.675Z,100760.30
2017-08-22T07:22:59.041Z,100757.89
2017-08-22T07:26:00.424Z,100757.58
2017-08-22T07:29:01.860Z,100759.47
2017-08-22T07:32:03.208Z,100764.59
2017-08-22T07:35:04.608Z,100754.14
2017-08-22T07:38:06.182Z,100762.34
2017-08-22T07:41:07.512Z,100764.69
2017-08-22T07:44:08.897Z,100766.84
2017-08-22T07:47:10.243Z,100775.89
2017-08-22T07:50:11.646Z,100767.23
2017-08-22T07:53:13.011Z,100763.23
2017-08-22T07:56:14.391Z,100764.50
2017-08-22T07:59:15.929Z,100760.62
2017-08-22T08:02:17.284Z,100764.36
2017-08-22T08:05:18.765Z,100766.34
2017-08-22T08:08:20.127Z,100768.25
2017-08-22T08:11:21.498Z,100753.00
2017-08-22T08:14:22.856Z,100756.40
2017-08-22T08:17:24.270Z,100761.10
2017-08-22T08:20:25.645Z,100760.56
2017-08-22T08:23:27.010Z,100753.02
2017-08-22T08:26:28.403Z,100749.52
2017-08-22T08:29:29.793Z,100749.86
2017-08-22T08:32:31.212Z,100749.83
2017-08-22T08:35:32.554Z,100746.31
2017-08-22T08:38:33.963Z,100747.69
2017-08-22T08:41:35.372Z,100746.98
2017-08-22T08:44:36.748Z,100743.33
2017-08-22T08:47:38.115Z,100745.23
2017-08-22T08:50:39.514Z,100738.58
2017-08-22T08:53:40.874Z,100738.39
2017-08-22T08:56:42.333Z,100743.38
2017-08-22T08:59:43.712Z,100744.14
2017-08-22T09:02:45.090Z,100749.79
2017-08-22T09:05:46.521Z,100742.67
2017-08-22T09:08:47.867Z,100743.29
2017-08-22T09:11:49.907Z,100743.11
2017-08-22T09:14:51.251Z,100744.77
2017-08-22T09:17:52.647Z,100743.17
2017-08-22T09:20:54.001Z,100747.52
2017-08-22T09:23:55.357Z,100735.86
2017-08-22T09:26:56.932Z,100738.37
2017-08-22T09:29:58.351Z,100729.30
2017-08-22T09:32:59.679Z,100732.80
2017-08-22T10:01:22.681Z,100719.88
2017-08-22T10:04:24.006Z,100717.62
2017-08-22T10:07:25.359Z,100720.18
2017-08-22T10:10:26.719Z,100715.68
2017-08-22T10:13:28.051Z,100723.31
2017-08-22T10:16:29.393Z,100718.08
2017-08-22T10:19:30.749Z,100709.44
2017-08-22T10:22:32.096Z,100714.17
2017-08-22T10:25:33.424Z,100716.80
2017-08-22T10:28:34.751Z,100716.28
2017-08-22T10:31:36.144Z,100718.34
2017-08-22T10:34:37.460Z,100717.16
2017-08-22T10:37:38.835Z,100704.42
2017-08-22T10:40:40.162Z,100709.78
2017-08-22T10:43:41.562Z,100707.29
2017-08-22T10:46:42.862Z,100701.95
2017-08-22T10:49:44.190Z,100708.91
2017-08-22T10:52:45.720Z,100706.31
2017-08-22T10:55:47.044Z,100691.53
2017-08-22T10:58:48.498Z,100690.76
2017-08-22T11:01:49.809Z,100694.60
2017-08-22T11:04:51.146Z,100686.17
2017-08-22T11:07:52.485Z,100683.81
2017-08-22T11:10:53.808Z,100688.94
2017-08-22T11:13:55.113Z,100684.70
2017-08-22T11:16:56.934Z,100687.24
2017-08-22T11:19:58.414Z,100677.89
2017-08-22T11:22:59.752Z,100672.42
2017-08-22T11:26:01.113Z,100680.35
2017-08-22T11:29:02.467Z,100675.43
2017-08-22T11:32:03.822Z,100668.72
2017-08-22T11:35:05.246Z,100668.25
2017-08-22T11:38:06.725Z,100666.25
2017-08-22T11:41:08.278Z,100660.43
2017-08-22T11:44:09.820Z,100672.89
2017-08-22T11:47:11.402Z,100669.27
2017-08-22T11:50:12.835Z,100641.07
2017-08-22T11:53:14.238Z,100671.09
2017-08-22T11:56:15.621Z,100658.48
2017-08-22T11:59:17.048Z,100658.98
2017-08-22T12:02:18.427Z,100652.84
2017-08-22T12:05:19.863Z,100645.75
2017-08-22T12:08:21.260Z,100644.73
2017-08-22T12:11:22.683Z,100653.47
2017-08-22T12:14:24.182Z,100649.14
2017-08-22T12:17:25.618Z,100641.50
2017-08-22T12:20:27.030Z,100637.00
2017-08-22T12:23:28.415Z,100626.45
2017-08-22T12:26:29.926Z,100639.86
2017-08-22T12:29:31.303Z,100633.92
2017-08-22T12:32:32.714Z,100628.80
2017-08-22T12:35:34.103Z,100634.42
2017-08-22T12:38:35.470Z,100633.17
2017-08-22T12:41:36.821Z,100634.70
2017-08-22T12:44:38.175Z,100625.44
2017-08-22T12:47:39.491Z,100624.47
2017-08-22T12:50:40.847Z,100627.88
2017-08-22T12:53:42.205Z,100624.28
2017-08-22T12:56:43.517Z,100626.72
2017-08-22T12:59:44.883Z,100627.42
2017-08-22T13:02:46.253Z,100618.05
2017-08-22T13:05:47.639Z,100621.59
2017-08-22T13:08:48.987Z,100616.47
2017-08-22T13:11:50.350Z,100615.91
2017-08-22T13:14:51.681Z,100626.43
2017-08-22T13:17:53.024Z,100621.30
2017-08-22T13:20:54.411Z,100625.09
2017-08-22T13:23:55.743Z,100621.98
2017-08-22T13:26:57.107Z,100630.14
2017-08-22T13:29:58.397Z,100622.67
2017-08-22T13:32:59.761Z,100624.66
2017-08-22T13:36:01.348Z,100622.00
2017-08-22T13:39:02.879Z,100614.83
2017-08-22T13:42:04.378Z,100617.94
2017-08-22T13:45:05.835Z,100613.78
2017-08-22T13:48:07.382Z,100611.58
2017-08-22T13:51:08.747Z,100612.04
2017-08-22T13:54:10.173Z,100602.66
2017-08-22T13:57:11.549Z,100606.61
2017-08-22T14:00:12.968Z,100608.42
2017-08-22T14:03:14.359Z,100607.26
2017-08-22T14:06:16.512Z,100593.00
2017-08-22T14:09:17.966Z,100586.06
2017-08-22T14:12:19.430Z,100581.12
2017-08-22T14:15:20.904Z,100576.33
2017-08-22T14:18:22.249Z,100579.97
2017-08-22T14:21:23.639Z,100576.03
2017-08-22T14:24:25.139Z,100582.59
2017-08-22T14:27:26.503Z,100578.12
2017-08-22T14:30:27.888Z,100568.20
2017-08-22T14:33:29.279Z,100573.92
2017-08-22T14:36:30.687Z,100571.34
2017-08-22T14:39:32.031Z,100561.05
2017-08-22T14:42:33.406Z,100568.80
2017-08-22T14:45:34.766Z,100567.98
2017-08-22T14:48:36.186Z,100564.45
2017-08-22T14:51:37.553Z,100564.97
2017-08-22T14:54:38.904Z,100553.17
2017-08-22T14:57:40.337Z,100561.12
2017-08-22T15:00:41.718Z,100559.34
2017-08-22T15:03:43.089Z,100557.46
2017-08-22T15:06:44.440Z,100555.60
2017-08-22T15:09:45.788Z,100561.17
2017-08-22T15:12:47.113Z,100552.98
2017-08-22T15:15:48.434Z,100560.92
2017-08-22T15:18:49.770Z,100549.44
2017-08-22T15:21:51.081Z,100555.80
2017-08-22T15:24:52.436Z,100555.56
2017-08-22T15:27:53.772Z,100545.58
2017-08-22T15:30:55.133Z,100542.84
2017-08-22T15:33:56.457Z,100542.92
2017-08-22T15:36:57.802Z,100548.50
2017-08-22T15:39:59.142Z,100541.78
2017-08-22T15:43:00.451Z,100534.70
2017-08-22T15:46:01.867Z,100535.22
2017-08-22T15:49:03.190Z,100536.71
2017-08-22T15:52:04.542Z,100533.38
2017-08-22T15:55:06.294Z,100533.72
2017-08-22T15:58:08.174Z,100533.23
2017-08-22T16:01:09.591Z,100526.92
2017-08-22T16:04:11.943Z,100519.84
2017-08-22T16:07:13.305Z,100518.27
2017-08-22T16:10:14.642Z,100525.19
2017-08-22T16:13:17.113Z,100524.42
2017-08-22T16:16:18.506Z,100515.78
2017-08-22T16:19:19.978Z,100512.34
2017-08-22T16:22:21.893Z,100515.80
2017-08-22T16:25:23.609Z,100511.11
2017-08-22T16:28:27.085Z,100509.31
2017-08-22T16:31:29.166Z,100505.69
2017-08-22T16:34:30.928Z,100511.97
2017-08-22T16:37:33.425Z,100503.05
2017-08-22T16:40:37.574Z,100497.14
2017-08-22T16:43:39.028Z,100508.11
2017-08-22T16:46:40.324Z,100499.52
2017-08-22T16:49:41.838Z,100507.63
2017-08-22T16:52:43.163Z,100489.17
2017-08-22T16:55:47.096Z,100498.91
2017-08-22T16:58:50.150Z,100489.88
2017-08-22T17:01:51.510Z,100497.86
2017-08-22T17:04:52.859Z,100483.55
2017-08-22T17:07:54.226Z,100486.34
2017-08-22T17:10:56.479Z,100483.12
2017-08-22T17:13:57.790Z,100485.95
2017-08-22T17:16:59.925Z,100479.11
2017-08-22T17:20:01.385Z,100485.71
2017-08-22T17:23:03.542Z,100480.48
2017-08-22T17:26:05.613Z,100486.05
2017-08-22T17:29:08.600Z,100484.10
2017-08-22T17:32:09.979Z,100484.25
2017-08-22T17:35:11.325Z,100485.77
2017-08-22T17:38:12.651Z,100492.84
2017-08-22T17:41:13.942Z,100486.52
2017-08-22T17:44:15.291Z,100484.95
2017-08-22T17:47:18.228Z,100480.61
2017-08-22T17:50:19.623Z,100477.37
2017-08-22T17:53:20.952Z,100474.73
2017-08-22T17:56:22.931Z,100469.94
2017-08-22T17:59:24.527Z,100472.38
2017-08-22T18:02:26.059Z,100475.03
2017-08-22T18:05:27.462Z,100474.31
2017-08-22T18:08:29.915Z,100470.39
2017-08-22T18:11:32.832Z,100474.50
2017-08-22T18:14:35.122Z,100476.31
2017-08-22T18:17:37.479Z,100484.37
2017-08-22T18:20:39.185Z,100478.61
2017-08-22T18:23:40.504Z,100482.53
2017-08-22T18:26:42.074Z,100490.22
2017-08-22T18:29:43.398Z,100489.38
2017-08-22T18:32:45.232Z,100479.03
2017-08-22T18:35:46.609Z,100488.33
2017-08-22T18:38:48.115Z,100486.84
2017-08-22T18:41:49.457Z,100487.00
2017-08-22T18:44:50.822Z,100492.17
2017-08-22T18:47:52.159Z,100494.38
2017-08-22T18:50:54.187Z,100498.05
2017-08-22T18:53:55.730Z,100494.94
2017-08-22T18:56:59.023Z,100501.47
2017-08-22T19:00:00.396Z,100493.95
2017-08-22T19:03:03.048Z,100495.59
2017-08-22T19:06:04.688Z,100492.55
2017-08-22T19:09:07.426Z,100490.17
2017-08-22T19:12:10.642Z,100501.62
2017-08-22T19:15:12.107Z,100495.16
2017-08-22T19:18:13.530Z,100493.03
2017-08-22T19:21:16.295Z,100489.33
2017-08-22T19:24:18.976Z,100484.55
2017-08-22T19:27:20.321Z,100495.88
2017-08-22T19:30:21.987Z,100492.31
2017-08-22T19:33:25.961Z,100490.54
2017-08-22T19:36:27.374Z,100491.88
2017-08-22T19:39:29.497Z,100497.05
2017-08-22T19:42:31.423Z,100507.25
2017-08-22T19:45:34.408Z,100493.02
2017-08-22T19:48:36.220Z,100508.64
2017-08-22T19:51:37.921Z,100507.16
2017-08-22T19:54:42.198Z,100505.92
2017-08-22T19:57:45.795Z,100501.02
2017-08-22T20:00:47.274Z,100501.06
2017-08-22T20:03:49.691Z,100512.94
2017-08-22T20:06:55.283Z,100513.90
2017-08-22T20:09:56.624Z,100509.84
2017-08-22T20:12:59.477Z,100511.36
2017-08-22T20:16:00.861Z,100508.41
2017-08-22T20:19:02.636Z,100510.95
2017-08-22T20:22:03.948Z,100510.98
2017-08-22T20:25:05.302Z,100513.62
2017-08-22T20:28:06.603Z,100503.64
2017-08-22T20:31:07.958Z,100504.75
2017-08-22T20:34:09.284Z,100501.37
2017-08-22T20:37:10.618Z,100498.42
2017-08-22T20:40:12.056Z,100502.31
2017-08-22T20:43:13.458Z,100507.55
2017-08-22T20:46:15.305Z,100509.86
2017-08-22T20:49:16.756Z,100507.47
2017-08-22T20:52:18.281Z,100501.91
2017-08-22T20:55:19.625Z,100499.16
2017-08-22T20:58:21.009Z,100506.45
2017-08-22T21:01:22.315Z,100497.96
2017-08-22T21:04:23.819Z,100497.48
2017-08-22T21:07:25.245Z,100495.49
2017-08-22T21:10:26.633Z,100494.36
2017-08-22T21:13:28.008Z,100488.27
2017-08-22T21:16:29.428Z,100489.86
2017-08-22T21:19:30.794Z,100485.77
2017-08-22T21:22:32.090Z,100479.73
2017-08-22T21:25:33.462Z,100484.37
2017-08-22T21:28:34.812Z,100479.48
2017-08-22T21:31:36.248Z,100475.95
2017-08-22T21:34:37.603Z,100466.58
2017-08-22T21:37:39.005Z,100467.84
2017-08-22T21:40:40.412Z,100472.46
2017-08-22T21:43:41.741Z,100458.30
2017-08-22T21:46:45.742Z,100457.90
2017-08-22T21:49:47.116Z,100460.44
2017-08-22T21:52:48.480Z,100459.42
2017-08-22T21:55:49.953Z,100454.39
2017-08-22T21:58:51.360Z,100466.45
2017-08-22T22:01:52.745Z,100462.45
2017-08-22T22:04:54.170Z,100462.33
2017-08-22T22:07:55.639Z,100466.42
2017-08-22T22:10:57.030Z,100463.29
2017-08-22T22:13:58.407Z,100465.27
2017-08-22T22:16:59.746Z,100469.06
2017-08-22T22:20:01.149Z,100472.05
2017-08-22T22:23:02.518Z,100462.70
2017-08-22T22:26:03.935Z,100458.64
2017-08-22T22:29:05.264Z,100457.05
2017-08-22T22:32:06.619Z,100453.79
2017-08-22T22:35:08.006Z,100443.37
2017-08-22T22:38:09.374Z,100444.39
2017-08-22T22:41:10.762Z,100441.48
2017-08-22T22:44:12.099Z,100436.23
2017-08-22T22:47:14.217Z,100437.77
2017-08-22T22:50:15.573Z,100432.26
2017-08-22T22:53:16.971Z,100439.73
2017-08-22T22:56:18.357Z,100441.81
2017-08-22T22:59:19.714Z,100434.67
2017-08-22T23:02:21.122Z,100441.28
2017-08-22T23:05:22.506Z,100439.68
2017-08-22T23:08:23.969Z,100435.16
2017-08-22T23:11:25.351Z,100432.61
2017-08-22T23:14:26.815Z,100434.11
2017-08-22T23:17:28.205Z,100435.22
2017-08-22T23:20:29.570Z,100428.62
2017-08-22T23:23:30.955Z,100427.61
2017-08-22T23:26:32.314Z,100422.31
2017-08-22T23:29:33.679Z,100421.24
2017-08-22T23:32:34.994Z,100418.30
2017-08-22T23:35:36.353Z,100425.54
2017-08-22T23:38:37.811Z,100430.77
2017-08-22T23:41:39.132Z,100420.02
2017-08-22T23:44:40.991Z,100415.80
2017-08-22T23:47:42.349Z,100417.50
2017-08-22T23:50:44.670Z,100414.13
2017-08-22T23:53:45.982Z,100418.41
2017-08-22T23:56:47.329Z,100416.98
2017-08-22T23:59:48.646Z,100412.78
